createdAt,value
2022-10-01T16:18:04.940Z,4.38
2022-10-01T16:20:46.648Z,4.55
2022-10-01T16:23:40.028Z,4.95
2022-10-01T16:26:28.529Z,4.25
2022-10-01T16:29:06.177Z,3.35
2022-10-01T16:31:35.962Z,3.25
2022-10-01T16:34:02.772Z,4.10
2022-10-01T16:36:32.612Z,3.38
2022-10-01T16:38:59.967Z,3.70
2022-10-01T16:41:27.879Z,3.25
2022-10-01T16:43:56.965Z,3.92
2022-10-01T16:46:23.793Z,5.07
2022-10-01T16:48:53.773Z,8.52
2022-10-01T16:51:21.898Z,8.02
2022-10-01T16:53:49.708Z,6.03
2022-10-01T16:56:16.450Z,4.65
2022-10-01T16:58:44.172Z,3.97
2022-10-01T17:01:14.870Z,4.35
2022-10-01T17:03:42.007Z,3.33
2022-10-01T17:06:09.182Z,4.32
2022-10-01T17:08:36.049Z,3.72
2022-10-01T17:11:03.381Z,3.13
2022-10-01T17:13:33.802Z,4.68
2022-10-01T17:16:01.653Z,4.05
2022-10-01T17:18:28.855Z,3.22
2022-10-01T17:20:56.192Z,3.65
2022-10-01T17:23:23.218Z,3.65
2022-10-01T17:25:50.406Z,4.25
2022-10-01T17:28:20.246Z,9.68
2022-10-01T17:30:48.728Z,5.35
2022-10-01T17:33:22.372Z,3.15
2022-10-01T17:35:55.548Z,4.47
2022-10-01T17:38:23.183Z,3.50
2022-10-01T17:40:54.230Z,3.80
2022-10-01T17:43:25.717Z,3.80
2022-10-01T17:45:58.201Z,4.60
2022-10-01T17:48:28.572Z,4.30
2022-10-01T17:51:09.914Z,4.18
2022-10-01T17:53:42.265Z,12.23
2022-10-01T17:56:16.528Z,6.72
2022-10-01T17:58:45.918Z,4.63
2022-10-01T18:01:19.774Z,4.07
2022-10-01T18:03:52.592Z,4.45
2022-10-01T18:06:19.436Z,4.30
2022-10-01T18:09:01.203Z,4.25
2022-10-01T18:11:29.578Z,4.57
2022-10-01T18:13:56.689Z,3.75
2022-10-01T18:16:24.885Z,5.65
2022-10-01T18:21:47.976Z,4.05
2022-10-01T18:24:16.087Z,5.82
2022-10-01T18:26:43.421Z,13.82
2022-10-01T18:29:25.585Z,14.25
2022-10-01T18:31:59.277Z,10.40
2022-10-01T18:34:39.839Z,4.45
2022-10-01T18:37:24.898Z,4.10
2022-10-01T18:40:08.993Z,4.78
2022-10-01T18:42:57.779Z,5.25
2022-10-01T18:46:08.164Z,3.90
2022-10-01T18:49:02.148Z,3.92
2022-10-01T18:51:51.817Z,4.70
2022-10-01T18:54:52.506Z,4.65
2022-10-01T18:57:53.438Z,4.38
2022-10-01T19:00:23.369Z,3.45
2022-10-01T19:04:01.682Z,3.70
2022-10-01T19:07:04.980Z,3.20
2022-10-01T19:10:07.132Z,5.15
2022-10-01T19:13:13.825Z,5.00
2022-10-01T19:16:14.757Z,4.47
2022-10-01T19:19:11.271Z,5.15
2022-10-01T19:22:02.066Z,9.82
2022-10-01T19:24:45.061Z,11.23
2022-10-01T19:27:56.355Z,8.60
2022-10-01T19:30:23.304Z,5.47
2022-10-01T19:33:03.529Z,5.10
2022-10-01T19:35:44.533Z,4.57
2022-10-01T19:38:53.530Z,4.05
2022-10-01T19:41:38.571Z,5.35
2022-10-01T19:44:16.323Z,2.35
2022-10-01T19:46:47.525Z,1.83
2022-10-01T19:49:25.963Z,1.13
2022-10-01T19:52:12.241Z,1.98
2022-10-01T19:54:46.529Z,1.40
2022-10-01T19:57:27.931Z,1.50
2022-10-01T19:59:58.829Z,1.45
2022-10-01T20:02:47.058Z,1.10
2022-10-01T20:05:36.038Z,1.10
2022-10-01T20:08:14.269Z,0.90
2022-10-01T20:10:50.307Z,0.98
2022-10-01T20:14:37.869Z,1.50
2022-10-01T20:17:37.813Z,1.80
2022-10-01T20:20:23.420Z,1.70
2022-10-01T20:23:11.163Z,1.67
2022-10-01T20:25:52.505Z,1.40
2022-10-01T20:28:36.295Z,1.85
2022-10-01T20:31:47.166Z,1.38
2022-10-01T20:34:48.735Z,1.40
2022-10-01T20:37:34.945Z,1.27
2022-10-01T20:40:18.341Z,1.30
2022-10-01T20:42:49.103Z,1.70
2022-10-01T20:45:25.102Z,1.52
2022-10-01T20:48:22.639Z,1.90
2022-10-01T20:51:00.686Z,1.58
2022-10-01T20:53:51.005Z,1.42
2022-10-01T20:56:28.570Z,1.50
2022-10-01T20:59:23.908Z,1.40
2022-10-01T21:02:19.766Z,1.65
2022-10-01T21:04:56.737Z,1.77
2022-10-01T21:07:42.081Z,1.80
2022-10-01T21:10:51.936Z,1.70
2022-10-01T21:13:30.983Z,1.42
2022-10-01T21:16:28.375Z,1.50
2022-10-01T21:19:36.695Z,1.58
2022-10-01T21:22:22.515Z,1.77
2022-10-01T21:25:26.526Z,1.77
2022-10-01T21:28:36.349Z,1.80
2022-10-01T21:31:24.343Z,1.83
2022-10-01T21:34:23.354Z,1.77
2022-10-01T21:37:11.195Z,1.73
2022-10-01T21:40:21.919Z,1.73
2022-10-01T21:43:18.163Z,1.10
2022-10-01T21:46:27.299Z,1.48
2022-10-01T21:49:26.223Z,1.33
2022-10-01T21:52:18.817Z,1.33
2022-10-01T21:55:19.361Z,0.95
2022-10-01T21:58:23.434Z,0.90
2022-10-01T22:01:27.431Z,1.10
2022-10-01T22:04:07.664Z,1.23
2022-10-01T22:07:00.014Z,1.02
2022-10-01T22:10:05.791Z,1.00
2022-10-01T22:12:37.253Z,1.27
2022-10-01T22:15:32.353Z,1.20
2022-10-01T22:18:02.620Z,1.10
2022-10-01T22:20:37.114Z,1.02
2022-10-01T22:23:12.516Z,1.05
2022-10-01T22:25:50.859Z,1.17
2022-10-01T22:28:27.466Z,1.40
2022-10-01T22:30:59.408Z,1.25
2022-10-01T22:33:42.181Z,1.15
2022-10-01T22:36:30.243Z,1.45
2022-10-01T22:39:04.873Z,1.38
2022-10-01T22:41:45.175Z,1.23
2022-10-01T22:44:20.225Z,1.25
2022-10-01T22:46:49.668Z,1.40
2022-10-01T22:49:58.288Z,1.63
2022-10-01T22:52:52.072Z,1.70
2022-10-01T22:55:24.507Z,1.42
2022-10-01T22:58:28.581Z,1.88
2022-10-01T23:01:22.642Z,1.67
2022-10-01T23:04:03.208Z,1.60
2022-10-01T23:07:07.048Z,1.30
2022-10-01T23:09:43.631Z,1.60
2022-10-01T23:12:59.803Z,1.52
2022-10-01T23:16:00.224Z,1.50
2022-10-01T23:19:05.273Z,1.60
2022-10-01T23:21:43.460Z,1.25
2022-10-01T23:24:41.749Z,1.50
2022-10-01T23:27:39.135Z,1.40
2022-10-01T23:30:15.897Z,2.03
2022-10-01T23:33:31.784Z,1.35
2022-10-01T23:36:30.981Z,1.45
2022-10-01T23:39:33.484Z,1.70
2022-10-01T23:42:28.341Z,1.60
2022-10-01T23:45:13.072Z,1.60
2022-10-01T23:47:53.526Z,2.10
2022-10-01T23:50:30.070Z,1.60
2022-10-01T23:53:22.064Z,1.60
2022-10-01T23:56:27.644Z,1.55
2022-10-01T23:59:31.926Z,1.42
